sensor_id;sensor_type;location;lat;lon;timestamp;pressure;altitude;pressure_sealevel;temperature;humidity
32761;BME280;19126;47.472;7.850;2023-05-29T00:05:10;96482.44;;;10.78;100.00
32761;BME280;19126;47.472;7.850;2023-05-29T00:07:38;96478.69;;;10.72;100.00
32761;BME280;19126;47.472;7.850;2023-05-29T00:10:07;96482.03;;;10.66;100.00
32761;BME280;19126;47.472;7.850;2023-05-29T00:12:38;96491.63;;;10.59;100.00
32761;BME280;19126;47.472;7.850;2023-05-29T00:15:13;96477.84;;;10.57;100.00
32761;BME280;19126;47.472;7.850;2023-05-29T00:17:48;96478.84;;;10.55;100.00
32761;BME280;19126;47.472;7.850;2023-05-29T00:20:19;96481.81;;;10.52;100.00
32761;BME280;19126;47.472;7.850;2023-05-29T00:22:49;96480.09;;;10.36;100.00
32761;BME280;19126;47.472;7.850;2023-05-29T00:25:21;96476.84;;;10.34;100.00
32761;BME280;19126;47.472;7.850;2023-05-29T00:27:49;96472.13;;;10.30;100.00
32761;BME280;19126;47.472;7.850;2023-05-29T00:30:22;96483.44;;;10.30;100.00
32761;BME280;19126;47.472;7.850;2023-05-29T00:32:56;96479.53;;;10.26;100.00
32761;BME280;19126;47.472;7.850;2023-05-29T00:35:26;96483.84;;;10.19;100.00
32761;BME280;19126;47.472;7.850;2023-05-29T00:37:58;96481.56;;;10.16;100.00
32761;BME280;19126;47.472;7.850;2023-05-29T00:40:35;96482.56;;;10.15;100.00
32761;BME280;19126;47.472;7.850;2023-05-29T00:43:02;96477.16;;;10.16;100.00
32761;BME280;19126;47.472;7.850;2023-05-29T00:45:33;96482.56;;;10.15;100.00
32761;BME280;19126;47.472;7.850;2023-05-29T00:48:02;96477.66;;;10.11;100.00
32761;BME280;19126;47.472;7.850;2023-05-29T00:50:32;96475.56;;;10.07;100.00
32761;BME280;19126;47.472;7.850;2023-05-29T00:53:00;96479.19;;;10.06;100.00
32761;BME280;19126;47.472;7.850;2023-05-29T00:55:31;96480.69;;;10.00;100.00
32761;BME280;19126;47.472;7.850;2023-05-29T00:57:59;96477.13;;;9.93;100.00
32761;BME280;19126;47.472;7.850;2023-05-29T01:00:34;96492.34;;;9.97;100.00
32761;BME280;19126;47.472;7.850;2023-05-29T01:03:04;96489.13;;;9.87;100.00
32761;BME280;19126;47.472;7.850;2023-05-29T01:05:34;96496.72;;;9.82;100.00
32761;BME280;19126;47.472;7.850;2023-05-29T01:08:18;96484.94;;;9.78;100.00
32761;BME280;19126;47.472;7.850;2023-05-29T01:10:46;96487.25;;;9.73;100.00
32761;BME280;19126;47.472;7.850;2023-05-29T01:13:24;96487.25;;;9.73;100.00
32761;BME280;19126;47.472;7.850;2023-05-29T01:16:00;96484.13;;;9.69;100.00
32761;BME280;19126;47.472;7.850;2023-05-29T01:18:40;96482.84;;;9.65;100.00
32761;BME280;19126;47.472;7.850;2023-05-29T01:21:20;96483.19;;;9.62;100.00
32761;BME280;19126;47.472;7.850;2023-05-29T01:24:07;96478.81;;;9.54;100.00
32761;BME280;19126;47.472;7.850;2023-05-29T01:26:50;96483.75;;;9.49;100.00
32761;BME280;19126;47.472;7.850;2023-05-29T01:29:29;96480.00;;;9.43;100.00
32761;BME280;19126;47.472;7.850;2023-05-29T01:31:59;96470.38;;;9.35;100.00
32761;BME280;19126;47.472;7.850;2023-05-29T01:34:28;96478.06;;;9.37;100.00
32761;BME280;19126;47.472;7.850;2023-05-29T01:36:56;96473.00;;;9.35;100.00
32761;BME280;19126;47.472;7.850;2023-05-29T01:39:24;96468.09;;;9.32;100.00
32761;BME280;19126;47.472;7.850;2023-05-29T01:41:55;96464.00;;;9.30;100.00
32761;BME280;19126;47.472;7.850;2023-05-29T01:44:25;96471.06;;;9.29;100.00
32761;BME280;19126;47.472;7.850;2023-05-29T01:46:58;96468.94;;;9.24;100.00
32761;BME280;19126;47.472;7.850;2023-05-29T01:49:29;96466.31;;;9.24;100.00
32761;BME280;19126;47.472;7.850;2023-05-29T01:52:01;96473.38;;;9.16;100.00
32761;BME280;19126;47.472;7.850;2023-05-29T01:54:29;96484.03;;;9.14;100.00
32761;BME280;19126;47.472;7.850;2023-05-29T01:57:07;96483.38;;;9.12;100.00
32761;BME280;19126;47.472;7.850;2023-05-29T01:59:35;96481.25;;;9.07;100.00
32761;BME280;19126;47.472;7.850;2023-05-29T02:02:09;96480.78;;;9.04;100.00
32761;BME280;19126;47.472;7.850;2023-05-29T02:04:37;96483.88;;;9.07;100.00
32761;BME280;19126;47.472;7.850;2023-05-29T02:07:17;96476.22;;;8.98;100.00
32761;BME280;19126;47.472;7.850;2023-05-29T02:09:53;96476.88;;;8.91;100.00
32761;BME280;19126;47.472;7.850;2023-05-29T02:12:22;96471.97;;;8.88;100.00
32761;BME280;19126;47.472;7.850;2023-05-29T02:15:03;96476.56;;;8.86;100.00
32761;BME280;19126;47.472;7.850;2023-05-29T02:17:35;96475.28;;;8.82;100.00
32761;BME280;19126;47.472;7.850;2023-05-29T02:20:17;96481.63;;;8.79;100.00
32761;BME280;19126;47.472;7.850;2023-05-29T02:22:50;96476.72;;;8.76;100.00
32761;BME280;19126;47.472;7.850;2023-05-29T02:25:18;96480.03;;;8.70;100.00
32761;BME280;19126;47.472;7.850;2023-05-29T02:27:47;96472.69;;;8.65;100.00
32761;BME280;19126;47.472;7.850;2023-05-29T02:30:14;96470.53;;;8.61;100.00
32761;BME280;19126;47.472;7.850;2023-05-29T02:32:41;96469.41;;;8.55;100.00
32761;BME280;19126;47.472;7.850;2023-05-29T02:35:11;96467.13;;;8.52;100.00
32761;BME280;19126;47.472;7.850;2023-05-29T02:37:50;96474.78;;;8.45;100.00
32761;BME280;19126;47.472;7.850;2023-05-29T02:40:20;96475.28;;;8.41;100.00
32761;BME280;19126;47.472;7.850;2023-05-29T02:43:01;96479.22;;;8.36;100.00
32761;BME280;19126;47.472;7.850;2023-05-29T02:45:31;96479.34;;;8.35;100.00
32761;BME280;19126;47.472;7.850;2023-05-29T02:48:07;96481.50;;;8.31;100.00
32761;BME280;19126;47.472;7.850;2023-05-29T02:50:42;96475.28;;;8.32;100.00
32761;BME280;19126;47.472;7.850;2023-05-29T02:53:21;96478.22;;;8.29;100.00
32761;BME280;19126;47.472;7.850;2023-05-29T02:55:51;96478.69;;;8.25;100.00
32761;BME280;19126;47.472;7.850;2023-05-29T02:58:20;96478.88;;;8.23;100.00
32761;BME280;19126;47.472;7.850;2023-05-29T03:03:39;96476.09;;;8.25;100.00
32761;BME280;19126;47.472;7.850;2023-05-29T03:06:10;96478.38;;;8.28;100.00
32761;BME280;19126;47.472;7.850;2023-05-29T03:08:38;96488.19;;;8.26;100.00
32761;BME280;19126;47.472;7.850;2023-05-29T03:11:06;96486.06;;;8.21;100.00
32761;BME280;19126;47.472;7.850;2023-05-29T03:13:46;96481.81;;;8.20;100.00
32761;BME280;19126;47.472;7.850;2023-05-29T03:16:23;96488.19;;;8.17;100.00
32761;BME280;19126;47.472;7.850;2023-05-29T03:18:59;96481.63;;;8.13;100.00
32761;BME280;19126;47.472;7.850;2023-05-29T03:21:40;96489.16;;;8.16;100.00
32761;BME280;19126;47.472;7.850;2023-05-29T03:24:16;96483.91;;;8.08;100.00
32761;BME280;19126;47.472;7.850;2023-05-29T03:26:46;96482.59;;;8.04;100.00
32761;BME280;19126;47.472;7.850;2023-05-29T03:29:18;96485.53;;;8.01;100.00
32761;BME280;19126;47.472;7.850;2023-05-29T03:31:56;96481.47;;;7.98;100.00
32761;BME280;19126;47.472;7.850;2023-05-29T03:34:26;96487.97;;;7.94;100.00
32761;BME280;19126;47.472;7.850;2023-05-29T03:36:53;96490.09;;;7.90;100.00
32761;BME280;19126;47.472;7.850;2023-05-29T03:39:33;96489.59;;;7.87;100.00
32761;BME280;19126;47.472;7.850;2023-05-29T03:42:04;96488.63;;;7.88;100.00
32761;BME280;19126;47.472;7.850;2023-05-29T03:44:41;96490.09;;;7.82;100.00
32761;BME280;19126;47.472;7.850;2023-05-29T03:47:20;96486.63;;;7.82;100.00
32761;BME280;19126;47.472;7.850;2023-05-29T03:49:47;96492.69;;;7.82;100.00
32761;BME280;19126;47.472;7.850;2023-05-29T03:52:17;96484.03;;;7.82;100.00
32761;BME280;19126;47.472;7.850;2023-05-29T03:54:49;96495.63;;;7.79;100.00
32761;BME280;19126;47.472;7.850;2023-05-29T03:57:19;96493.16;;;7.77;100.00
32761;BME280;19126;47.472;7.850;2023-05-29T03:59:55;96494.16;;;7.76;100.00
32761;BME280;19126;47.472;7.850;2023-05-29T04:02:22;96492.38;;;7.77;100.00
32761;BME280;19126;47.472;7.850;2023-05-29T04:04:49;96489.88;;;7.75;100.00
32761;BME280;19126;47.472;7.850;2023-05-29T04:07:21;96489.09;;;7.75;100.00
32761;BME280;19126;47.472;7.850;2023-05-29T04:09:59;96488.09;;;7.76;100.00
32761;BME280;19126;47.472;7.850;2023-05-29T04:12:30;96481.06;;;7.76;100.00
32761;BME280;19126;47.472;7.850;2023-05-29T04:15:12;96491.41;;;7.86;100.00
32761;BME280;19126;47.472;7.850;2023-05-29T04:17:42;96498.09;;;7.89;100.00
32761;BME280;19126;47.472;7.850;2023-05-29T04:20:24;96497.13;;;7.90;100.00
32761;BME280;19126;47.472;7.850;2023-05-29T04:22:51;96507.91;;;7.87;100.00
32761;BME280;19126;47.472;7.850;2023-05-29T04:25:23;96511.16;;;7.89;100.00
32761;BME280;19126;47.472;7.850;2023-05-29T04:27:54;96517.91;;;7.91;99.53
32761;BME280;19126;47.472;7.850;2023-05-29T04:30:35;96519.22;;;7.96;98.87
32761;BME280;19126;47.472;7.850;2023-05-29T04:33:07;96519.72;;;7.99;98.82
32761;BME280;19126;47.472;7.850;2023-05-29T04:36:00;96521.03;;;8.03;99.23
32761;BME280;19126;47.472;7.850;2023-05-29T04:38:34;96534.59;;;8.07;98.84
32761;BME280;19126;47.472;7.850;2023-05-29T04:41:05;96531.03;;;8.16;98.79
32761;BME280;19126;47.472;7.850;2023-05-29T04:43:39;96527.75;;;8.14;99.55
32761;BME280;19126;47.472;7.850;2023-05-29T04:46:08;96520.41;;;8.18;99.62
32761;BME280;19126;47.472;7.850;2023-05-29T04:48:48;96528.59;;;8.23;98.68
32761;BME280;19126;47.472;7.850;2023-05-29T04:51:27;96535.28;;;8.26;98.82
32761;BME280;19126;47.472;7.850;2023-05-29T04:53:55;96534.97;;;8.29;97.46
32761;BME280;19126;47.472;7.850;2023-05-29T04:56:30;96539.72;;;8.33;96.56
32761;BME280;19126;47.472;7.850;2023-05-29T04:58:59;96540.06;;;8.39;96.69
32761;BME280;19126;47.472;7.850;2023-05-29T05:01:28;96541.84;;;8.46;96.51
32761;BME280;19126;47.472;7.850;2023-05-29T05:03:59;96542.06;;;8.53;96.25
32761;BME280;19126;47.472;7.850;2023-05-29T05:06:32;96544.34;;;8.56;97.02
32761;BME280;19126;47.472;7.850;2023-05-29T05:09:02;96550.56;;;8.63;96.59
32761;BME280;19126;47.472;7.850;2023-05-29T05:11:30;96544.84;;;8.68;97.06
32761;BME280;19126;47.472;7.850;2023-05-29T05:14:01;96551.56;;;8.79;97.54
32761;BME280;19126;47.472;7.850;2023-05-29T05:16:29;96546.28;;;9.12;97.50
32761;BME280;19126;47.472;7.850;2023-05-29T05:19:06;96547.81;;;9.46;99.20
32761;BME280;19126;47.472;7.850;2023-05-29T05:21:36;96541.00;;;9.77;100.00
32761;BME280;19126;47.472;7.850;2023-05-29T05:24:05;96547.22;;;10.07;100.00
32761;BME280;19126;47.472;7.850;2023-05-29T05:26:34;96546.38;;;10.38;100.00
32761;BME280;19126;47.472;7.850;2023-05-29T05:29:01;96544.09;;;10.67;100.00
32761;BME280;19126;47.472;7.850;2023-05-29T05:31:31;96550.41;;;10.96;100.00
32761;BME280;19126;47.472;7.850;2023-05-29T05:34:06;96546.19;;;11.25;100.00
32761;BME280;19126;47.472;7.850;2023-05-29T05:36:42;96549.38;;;11.50;100.00
32761;BME280;19126;47.472;7.850;2023-05-29T05:39:10;96549.47;;;11.72;100.00
32761;BME280;19126;47.472;7.850;2023-05-29T05:41:42;96552.53;;;11.91;100.00
32761;BME280;19126;47.472;7.850;2023-05-29T05:44:11;96550.59;;;12.14;100.00
32761;BME280;19126;47.472;7.850;2023-05-29T05:46:51;96552.44;;;12.36;100.00
32761;BME280;19126;47.472;7.850;2023-05-29T05:49:18;96556.09;;;12.56;100.00
32761;BME280;19126;47.472;7.850;2023-05-29T05:51:50;96557.72;;;12.79;100.00
32761;BME280;19126;47.472;7.850;2023-05-29T05:54:51;96559.50;;;13.00;100.00
32761;BME280;19126;47.472;7.850;2023-05-29T05:57:09;96564.16;;;13.27;100.00
32761;BME280;19126;47.472;7.850;2023-05-29T05:59:36;96562.69;;;13.46;94.79
32761;BME280;19126;47.472;7.850;2023-05-29T06:02:08;96570.94;;;13.65;91.07
32761;BME280;19126;47.472;7.850;2023-05-29T06:04:40;96568.34;;;13.78;90.16
32761;BME280;19126;47.472;7.850;2023-05-29T06:07:07;96576.19;;;14.06;90.02
32761;BME280;19126;47.472;7.850;2023-05-29T06:09:41;96564.88;;;14.26;86.53
32761;BME280;19126;47.472;7.850;2023-05-29T06:12:10;96568.41;;;14.67;89.09
32761;BME280;19126;47.472;7.850;2023-05-29T06:14:38;96575.00;;;15.05;85.05
32761;BME280;19126;47.472;7.850;2023-05-29T06:17:10;96572.75;;;15.29;83.73
32761;BME280;19126;47.472;7.850;2023-05-29T06:19:38;96566.22;;;15.38;79.53
32761;BME280;19126;47.472;7.850;2023-05-29T06:22:10;96571.69;;;15.50;76.83
32761;BME280;19126;47.472;7.850;2023-05-29T06:24:40;96570.84;;;15.56;78.31
32761;BME280;19126;47.472;7.850;2023-05-29T06:27:09;96563.94;;;15.62;80.44
32761;BME280;19126;47.472;7.850;2023-05-29T06:29:45;96570.34;;;15.86;81.45
32761;BME280;19126;47.472;7.850;2023-05-29T06:32:14;96575.25;;;16.03;82.14
32761;BME280;19126;47.472;7.850;2023-05-29T06:34:47;96574.53;;;16.21;82.25
32761;BME280;19126;47.472;7.850;2023-05-29T06:37:32;96574.47;;;16.41;80.21
32761;BME280;19126;47.472;7.850;2023-05-29T06:40:31;96579.69;;;16.87;75.52
32761;BME280;19126;47.472;7.850;2023-05-29T06:43:06;96577.31;;;17.04;77.15
32761;BME280;19126;47.472;7.850;2023-05-29T06:45:40;96577.38;;;17.22;73.87
32761;BME280;19126;47.472;7.850;2023-05-29T06:48:16;96581.94;;;17.59;73.14
32761;BME280;19126;47.472;7.850;2023-05-29T06:50:58;96580.72;;;17.80;67.99
32761;BME280;19126;47.472;7.850;2023-05-29T06:53:43;96578.25;;;18.16;68.29
32761;BME280;19126;47.472;7.850;2023-05-29T06:56:12;96584.13;;;18.37;63.89
32761;BME280;19126;47.472;7.850;2023-05-29T06:58:57;96578.34;;;18.58;62.30
32761;BME280;19126;47.472;7.850;2023-05-29T07:01:27;96578.41;;;18.82;64.16
32761;BME280;19126;47.472;7.850;2023-05-29T07:04:20;96587.69;;;18.92;62.72
32761;BME280;19126;47.472;7.850;2023-05-29T07:06:58;96580.91;;;19.31;64.76
32761;BME280;19126;47.472;7.850;2023-05-29T07:09:37;96581.97;;;19.42;61.14
32761;BME280;19126;47.472;7.850;2023-05-29T07:12:17;96581.97;;;19.66;60.87
32761;BME280;19126;47.472;7.850;2023-05-29T07:14:55;96587.63;;;19.70;58.84
32761;BME280;19126;47.472;7.850;2023-05-29T07:17:23;96584.25;;;19.86;61.67
32761;BME280;19126;47.472;7.850;2023-05-29T07:20:12;96585.75;;;19.82;57.63
32761;BME280;19126;47.472;7.850;2023-05-29T07:22:43;96593.03;;;20.11;56.28
32761;BME280;19126;47.472;7.850;2023-05-29T07:25:17;96584.50;;;20.38;58.11
32761;BME280;19126;47.472;7.850;2023-05-29T07:27:59;96582.84;;;20.65;56.34
32761;BME280;19126;47.472;7.850;2023-05-29T07:30:27;96581.41;;;20.87;55.78
32761;BME280;19126;47.472;7.850;2023-05-29T07:33:23;96584.25;;;20.97;53.46
32761;BME280;19126;47.472;7.850;2023-05-29T07:36:07;96591.19;;;21.32;53.45
32761;BME280;19126;47.472;7.850;2023-05-29T07:38:40;96588.34;;;21.56;53.26
32761;BME280;19126;47.472;7.850;2023-05-29T07:41:14;96590.78;;;21.97;55.13
32761;BME280;19126;47.472;7.850;2023-05-29T07:43:49;96593.53;;;22.02;50.36
32761;BME280;19126;47.472;7.850;2023-05-29T07:46:19;96589.28;;;22.29;55.06
32761;BME280;19126;47.472;7.850;2023-05-29T07:49:03;96603.28;;;22.36;50.44
32761;BME280;19126;47.472;7.850;2023-05-29T07:51:36;96599.25;;;22.83;51.39
32761;BME280;19126;47.472;7.850;2023-05-29T07:54:10;96606.06;;;22.96;47.56
32761;BME280;19126;47.472;7.850;2023-05-29T07:56:46;96612.03;;;23.03;46.92
32761;BME280;19126;47.472;7.850;2023-05-29T07:59:21;96608.88;;;23.11;48.58
32761;BME280;19126;47.472;7.850;2023-05-29T08:01:49;96600.47;;;23.30;46.77
32761;BME280;19126;47.472;7.850;2023-05-29T08:04:45;96606.97;;;23.39;47.61
32761;BME280;19126;47.472;7.850;2023-05-29T08:07:24;96604.06;;;23.46;45.40
32761;BME280;19126;47.472;7.850;2023-05-29T08:10:09;96605.66;;;23.47;46.08
32761;BME280;19126;47.472;7.850;2023-05-29T08:12:38;96603.13;;;23.68;46.22
32761;BME280;19126;47.472;7.850;2023-05-29T08:15:26;96598.13;;;23.82;47.02
32761;BME280;19126;47.472;7.850;2023-05-29T08:18:10;96604.66;;;23.53;45.14
32761;BME280;19126;47.472;7.850;2023-05-29T08:20:44;96604.94;;;23.57;45.39
32761;BME280;19126;47.472;7.850;2023-05-29T08:23:34;96594.34;;;23.78;44.28
32761;BME280;19126;47.472;7.850;2023-05-29T08:26:01;96603.13;;;23.68;44.76
32761;BME280;19126;47.472;7.850;2023-05-29T08:28:39;96609.41;;;23.84;44.12
32761;BME280;19126;47.472;7.850;2023-05-29T08:31:09;96607.03;;;23.93;46.37
32761;BME280;19126;47.472;7.850;2023-05-29T08:34:37;96603.38;;;24.04;44.78
32761;BME280;19126;47.472;7.850;2023-05-29T08:36:28;96603.91;;;24.06;44.63
32761;BME280;19126;47.472;7.850;2023-05-29T08:39:16;96598.59;;;24.17;44.89
32761;BME280;19126;47.472;7.850;2023-05-29T08:42:03;96608.59;;;24.42;45.52
32761;BME280;19126;47.472;7.850;2023-05-29T08:44:35;96601.38;;;24.53;46.02
32761;BME280;19126;47.472;7.850;2023-05-29T08:47:09;96596.09;;;24.79;43.51
32761;BME280;19126;47.472;7.850;2023-05-29T08:49:48;96604.19;;;25.05;44.63
32761;BME280;19126;47.472;7.850;2023-05-29T08:52:37;96606.84;;;25.41;45.08
32761;BME280;19126;47.472;7.850;2023-05-29T08:55:33;96611.47;;;25.51;43.09
32761;BME280;19126;47.472;7.850;2023-05-29T08:58:00;96597.69;;;25.73;44.90
32761;BME280;19126;47.472;7.850;2023-05-29T09:00:45;96615.47;;;25.64;42.80
32761;BME280;19126;47.472;7.850;2023-05-29T09:03:12;96617.09;;;25.59;44.03
32761;BME280;19126;47.472;7.850;2023-05-29T09:05:44;96613.84;;;25.57;43.27
32761;BME280;19126;47.472;7.850;2023-05-29T09:08:30;96608.50;;;25.47;43.85
32761;BME280;19126;47.472;7.850;2023-05-29T09:11:22;96608.22;;;25.64;44.14
32761;BME280;19126;47.472;7.850;2023-05-29T09:13:55;96608.75;;;25.61;43.98
32761;BME280;19126;47.472;7.850;2023-05-29T09:16:25;96609.22;;;25.89;43.76
32761;BME280;19126;47.472;7.850;2023-05-29T09:19:10;96609.44;;;25.98;42.97
32761;BME280;19126;47.472;7.850;2023-05-29T09:21:41;96614.56;;;26.04;43.99
32761;BME280;19126;47.472;7.850;2023-05-29T09:24:22;96613.97;;;26.28;43.33
32761;BME280;19126;47.472;7.850;2023-05-29T09:27:00;96627.59;;;26.53;43.88
32761;BME280;19126;47.472;7.850;2023-05-29T09:29:44;96610.34;;;26.48;41.72
32761;BME280;19126;47.472;7.850;2023-05-29T09:32:31;96603.72;;;26.86;43.95
32761;BME280;19126;47.472;7.850;2023-05-29T09:35:05;96616.91;;;26.87;42.81
32761;BME280;19126;47.472;7.850;2023-05-29T09:37:48;96602.84;;;26.90;40.89
32761;BME280;19126;47.472;7.850;2023-05-29T09:40:16;96607.63;;;27.04;43.14
32761;BME280;19126;47.472;7.850;2023-05-29T09:42:46;96616.59;;;26.94;43.02
32761;BME280;19126;47.472;7.850;2023-05-29T09:45:21;96612.53;;;26.97;42.19
32761;BME280;19126;47.472;7.850;2023-05-29T09:47:51;96607.53;;;27.14;41.03
32761;BME280;19126;47.472;7.850;2023-05-29T09:50:26;96596.72;;;27.19;39.91
32761;BME280;19126;47.472;7.850;2023-05-29T09:53:00;96603.47;;;27.17;40.88
32761;BME280;19126;47.472;7.850;2023-05-29T09:55:31;96601.00;;;27.20;41.64
32761;BME280;19126;47.472;7.850;2023-05-29T09:58:55;96604.66;;;27.05;40.33
32761;BME280;19126;47.472;7.850;2023-05-29T10:01:23;96601.31;;;27.19;40.97
32761;BME280;19126;47.472;7.850;2023-05-29T10:04:10;96591.44;;;27.39;41.30
32761;BME280;19126;47.472;7.850;2023-05-29T10:06:44;96601.19;;;27.34;37.43
32761;BME280;19126;47.472;7.850;2023-05-29T10:09:28;96583.22;;;27.54;39.47
32761;BME280;19126;47.472;7.850;2023-05-29T10:12:09;96592.41;;;28.02;40.21
32761;BME280;19126;47.472;7.850;2023-05-29T10:15:05;96587.19;;;28.11;39.01
32761;BME280;19126;47.472;7.850;2023-05-29T10:17:43;96578.91;;;28.02;38.86
32761;BME280;19126;47.472;7.850;2023-05-29T10:20:26;96581.47;;;28.17;36.54
32761;BME280;19126;47.472;7.850;2023-05-29T10:23:02;96591.69;;;27.72;36.69
32761;BME280;19126;47.472;7.850;2023-05-29T10:25:37;96584.81;;;27.55;36.87
32761;BME280;19126;47.472;7.850;2023-05-29T10:28:09;96581.72;;;27.38;36.73
32761;BME280;19126;47.472;7.850;2023-05-29T10:34:00;96574.09;;;27.45;37.21
32761;BME280;19126;47.472;7.850;2023-05-29T10:36:38;96563.81;;;27.52;36.46
32761;BME280;19126;47.472;7.850;2023-05-29T10:39:12;96567.97;;;27.69;37.73
32761;BME280;19126;47.472;7.850;2023-05-29T10:41:57;96568.22;;;27.67;37.18
32761;BME280;19126;47.472;7.850;2023-05-29T10:44:45;96559.28;;;27.72;37.36
32761;BME280;19126;47.472;7.850;2023-05-29T10:47:23;96583.22;;;28.03;36.64
32761;BME280;19126;47.472;7.850;2023-05-29T10:49:53;96560.72;;;28.13;36.28
32761;BME280;19126;47.472;7.850;2023-05-29T10:52:31;96569.97;;;28.06;34.70
32761;BME280;19126;47.472;7.850;2023-05-29T10:55:18;96564.13;;;27.99;35.03
32761;BME280;19126;47.472;7.850;2023-05-29T10:57:55;96553.38;;;27.94;36.25
32761;BME280;19126;47.472;7.850;2023-05-29T11:03:29;96574.25;;;28.32;34.00
32761;BME280;19126;47.472;7.850;2023-05-29T11:06:04;96567.78;;;28.52;32.53
32761;BME280;19126;47.472;7.850;2023-05-29T11:08:35;96570.91;;;28.40;33.44
32761;BME280;19126;47.472;7.850;2023-05-29T11:14:30;96568.56;;;28.91;33.16
32761;BME280;19126;47.472;7.850;2023-05-29T11:17:48;96563.69;;;29.26;33.98
32761;BME280;19126;47.472;7.850;2023-05-29T11:20:52;96565.84;;;29.10;32.33
32761;BME280;19126;47.472;7.850;2023-05-29T11:23:44;96569.59;;;28.95;32.63
32761;BME280;19126;47.472;7.850;2023-05-29T11:26:20;96570.19;;;29.25;34.31
32761;BME280;19126;47.472;7.850;2023-05-29T11:28:50;96577.63;;;28.62;34.00
32761;BME280;19126;47.472;7.850;2023-05-29T11:31:20;96568.41;;;28.63;33.17
32761;BME280;19126;47.472;7.850;2023-05-29T11:33:59;96559.94;;;28.50;34.97
32761;BME280;19126;47.472;7.850;2023-05-29T11:36:51;96557.31;;;28.26;32.78
32761;BME280;19126;47.472;7.850;2023-05-29T11:39:25;96556.47;;;28.06;33.88
32761;BME280;19126;47.472;7.850;2023-05-29T11:41:54;96566.28;;;28.21;34.07
32761;BME280;19126;47.472;7.850;2023-05-29T11:44:51;96553.88;;;28.20;33.45
32761;BME280;19126;47.472;7.850;2023-05-29T11:47:22;96555.53;;;28.16;31.96
32761;BME280;19126;47.472;7.850;2023-05-29T11:49:52;96550.75;;;28.08;32.30
32761;BME280;19126;47.472;7.850;2023-05-29T11:52:27;96552.22;;;28.00;33.43
32761;BME280;19126;47.472;7.850;2023-05-29T11:55:21;96551.91;;;28.26;33.02
32761;BME280;19126;47.472;7.850;2023-05-29T11:58:06;96548.06;;;28.32;32.90
32761;BME280;19126;47.472;7.850;2023-05-29T12:00:59;96547.75;;;28.72;35.37
32761;BME280;19126;47.472;7.850;2023-05-29T12:03:29;96539.13;;;28.70;31.56
32761;BME280;19126;47.472;7.850;2023-05-29T12:06:04;96540.59;;;28.81;33.53
32761;BME280;19126;47.472;7.850;2023-05-29T12:08:50;96550.66;;;28.76;32.10
32761;BME280;19126;47.472;7.850;2023-05-29T12:11:23;96542.06;;;28.55;32.82
32761;BME280;19126;47.472;7.850;2023-05-29T12:14:08;96561.56;;;28.71;31.74
32761;BME280;19126;47.472;7.850;2023-05-29T12:16:57;96559.81;;;28.42;30.66
32761;BME280;19126;47.472;7.850;2023-05-29T12:20:13;96556.72;;;28.48;31.45
32761;BME280;19126;47.472;7.850;2023-05-29T12:22:33;96552.06;;;28.54;31.47
32761;BME280;19126;47.472;7.850;2023-05-29T12:25:38;96552.03;;;28.73;31.39
32761;BME280;19126;47.472;7.850;2023-05-29T12:28:32;96561.25;;;28.72;31.29
32761;BME280;19126;47.472;7.850;2023-05-29T12:31:03;96542.50;;;28.81;31.13
32761;BME280;19126;47.472;7.850;2023-05-29T12:34:16;96538.63;;;28.49;29.90
32761;BME280;19126;47.472;7.850;2023-05-29T12:36:54;96541.19;;;28.59;32.61
32761;BME280;19126;47.472;7.850;2023-05-29T12:39:22;96544.47;;;28.18;32.65
32761;BME280;19126;47.472;7.850;2023-05-29T12:41:54;96533.16;;;28.35;33.29
32761;BME280;19126;47.472;7.850;2023-05-29T12:44:30;96548.78;;;28.38;31.30
32761;BME280;19126;47.472;7.850;2023-05-29T12:47:15;96547.97;;;28.18;29.93
32761;BME280;19126;47.472;7.850;2023-05-29T12:50:39;96544.78;;;28.11;29.56
32761;BME280;19126;47.472;7.850;2023-05-29T12:53:14;96551.97;;;27.97;30.16
32761;BME280;19126;47.472;7.850;2023-05-29T12:55:48;96543.94;;;27.91;32.04
32761;BME280;19126;47.472;7.850;2023-05-29T12:58:22;96547.38;;;28.21;32.29
32761;BME280;19126;47.472;7.850;2023-05-29T13:00:59;96541.69;;;27.99;32.15
32761;BME280;19126;47.472;7.850;2023-05-29T13:03:30;96538.41;;;28.45;31.48
32761;BME280;19126;47.472;7.850;2023-05-29T13:06:05;96543.09;;;28.40;30.76
32761;BME280;19126;47.472;7.850;2023-05-29T13:08:42;96544.09;;;28.25;30.73
32761;BME280;19126;47.472;7.850;2023-05-29T13:11:33;96549.72;;;28.66;32.10
32761;BME280;19126;47.472;7.850;2023-05-29T13:14:32;96545.50;;;28.60;31.98
32761;BME280;19126;47.472;7.850;2023-05-29T13:17:07;96540.06;;;28.99;31.25
32761;BME280;19126;47.472;7.850;2023-05-29T13:19:42;96543.38;;;28.95;31.19
32761;BME280;19126;47.472;7.850;2023-05-29T13:25:25;96525.91;;;29.21;33.02
32761;BME280;19126;47.472;7.850;2023-05-29T13:28:16;96542.56;;;29.28;30.21
32761;BME280;19126;47.472;7.850;2023-05-29T13:30:53;96547.22;;;28.70;30.56
32761;BME280;19126;47.472;7.850;2023-05-29T13:33:25;96544.03;;;28.49;28.67
32761;BME280;19126;47.472;7.850;2023-05-29T13:36:18;96543.25;;;28.29;29.25
32761;BME280;19126;47.472;7.850;2023-05-29T13:38:45;96541.06;;;28.31;29.95
32761;BME280;19126;47.472;7.850;2023-05-29T13:41:18;96526.06;;;28.58;29.89
32761;BME280;19126;47.472;7.850;2023-05-29T13:43:50;96531.81;;;28.71;30.63
32761;BME280;19126;47.472;7.850;2023-05-29T13:46:19;96550.69;;;28.37;30.37
32761;BME280;19126;47.472;7.850;2023-05-29T13:48:52;96531.59;;;27.85;30.42
32761;BME280;19126;47.472;7.850;2023-05-29T13:51:30;96524.47;;;27.94;30.45
32761;BME280;19126;47.472;7.850;2023-05-29T13:53:57;96521.00;;;27.70;31.10
32761;BME280;19126;47.472;7.850;2023-05-29T13:56:49;96519.09;;;27.70;31.74
32761;BME280;19126;47.472;7.850;2023-05-29T13:59:24;96509.56;;;27.78;30.45
32761;BME280;19126;47.472;7.850;2023-05-29T14:02:07;96512.81;;;27.99;31.56
32761;BME280;19126;47.472;7.850;2023-05-29T14:04:40;96520.34;;;28.02;31.25
32761;BME280;19126;47.472;7.850;2023-05-29T14:07:38;96517.06;;;27.81;30.91